sensor_id;sensor_type;location;lat;lon;timestamp;pressure;altitude;pressure_sealevel;temperature;humidity
84859;BME280;75115;42.984;23.244;2024-02-26T00:00:29;94884.81;;;4.70;77.12
84859;BME280;75115;42.984;23.244;2024-02-26T00:02:55;94881.44;;;4.42;79.07
84859;BME280;75115;42.984;23.244;2024-02-26T00:05:20;94884.34;;;4.57;77.83
84859;BME280;75115;42.984;23.244;2024-02-26T00:07:46;94881.72;;;4.67;78.49
84859;BME280;75115;42.984;23.244;2024-02-26T00:10:13;94878.59;;;4.73;77.75
84859;BME280;75115;42.984;23.244;2024-02-26T00:12:38;94876.88;;;4.64;77.87
84859;BME280;75115;42.984;23.244;2024-02-26T00:15:08;94873.72;;;4.70;77.41
84859;BME280;75115;42.984;23.244;2024-02-26T00:17:34;94884.06;;;4.60;77.79
84859;BME280;75115;42.984;23.244;2024-02-26T00:19:59;94897.94;;;4.67;76.83
84859;BME280;75115;42.984;23.244;2024-02-26T00:22:26;94870.63;;;4.66;76.71
84859;BME280;75115;42.984;23.244;2024-02-26T00:24:51;94876.66;;;4.30;78.57
84859;BME280;75115;42.984;23.244;2024-02-26T00:27:17;94884.75;;;4.35;79.07
84859;BME280;75115;42.984;23.244;2024-02-26T00:29:42;94880.22;;;4.19;80.49
84859;BME280;75115;42.984;23.244;2024-02-26T00:32:08;94883.75;;;4.45;80.01
84859;BME280;75115;42.984;23.244;2024-02-26T00:34:33;94886.28;;;4.55;79.33
84859;BME280;75115;42.984;23.244;2024-02-26T00:36:59;94880.31;;;4.55;79.79
84859;BME280;75115;42.984;23.244;2024-02-26T00:39:24;94885.31;;;4.29;81.42
84859;BME280;75115;42.984;23.244;2024-02-26T00:41:49;94894.13;;;4.26;82.73
84859;BME280;75115;42.984;23.244;2024-02-26T00:44:17;94884.78;;;4.53;80.83
84859;BME280;75115;42.984;23.244;2024-02-26T00:46:42;94878.59;;;4.73;78.82
84859;BME280;75115;42.984;23.244;2024-02-26T00:49:07;94875.41;;;4.79;78.86
84859;BME280;75115;42.984;23.244;2024-02-26T00:51:33;94866.75;;;4.80;78.61
84859;BME280;75115;42.984;23.244;2024-02-26T00:53:58;94851.84;;;4.66;78.17
84859;BME280;75115;42.984;23.244;2024-02-26T00:56:24;94862.81;;;4.86;78.45
84859;BME280;75115;42.984;23.244;2024-02-26T00:58:49;94859.94;;;4.89;78.93
84859;BME280;75115;42.984;23.244;2024-02-26T01:01:14;94855.09;;;4.86;77.55
84859;BME280;75115;42.984;23.244;2024-02-26T01:03:40;94854.78;;;4.71;78.61
84859;BME280;75115;42.984;23.244;2024-02-26T01:06:05;94857.34;;;4.71;79.36
84859;BME280;75115;42.984;23.244;2024-02-26T01:08:30;94846.78;;;4.92;79.36
84859;BME280;75115;42.984;23.244;2024-02-26T01:10:57;94845.19;;;4.91;78.66
84859;BME280;75115;42.984;23.244;2024-02-26T01:13:22;94850.38;;;4.63;79.90
84859;BME280;75115;42.984;23.244;2024-02-26T01:15:47;94842.31;;;4.58;79.40
84859;BME280;75115;42.984;23.244;2024-02-26T01:18:13;94847.16;;;4.79;79.04
84859;BME280;75115;42.984;23.244;2024-02-26T01:20:38;94847.47;;;4.94;78.88
84859;BME280;75115;42.984;23.244;2024-02-26T01:23:04;94840.19;;;4.89;78.37
84859;BME280;75115;42.984;23.244;2024-02-26T01:25:29;94839.31;;;4.98;77.92
84859;BME280;75115;42.984;23.244;2024-02-26T01:27:55;94836.00;;;5.06;77.70
84859;BME280;75115;42.984;23.244;2024-02-26T01:30:20;94840.81;;;5.09;78.14
84859;BME280;75115;42.984;23.244;2024-02-26T01:32:46;94843.47;;;5.17;77.63
84859;BME280;75115;42.984;23.244;2024-02-26T01:35:11;94837.56;;;4.81;78.70
84859;BME280;75115;42.984;23.244;2024-02-26T01:37:37;94837.31;;;4.74;78.68
84859;BME280;75115;42.984;23.244;2024-02-26T01:40:03;94832.97;;;4.93;78.27
84859;BME280;75115;42.984;23.244;2024-02-26T01:42:32;94829.66;;;5.00;77.07
84859;BME280;75115;42.984;23.244;2024-02-26T01:44:58;94833.91;;;5.10;76.66
84859;BME280;75115;42.984;23.244;2024-02-26T01:47:24;94827.97;;;5.09;76.85
84859;BME280;75115;42.984;23.244;2024-02-26T01:49:50;94830.41;;;4.93;77.32
84859;BME280;75115;42.984;23.244;2024-02-26T01:52:15;94825.66;;;4.98;77.34
84859;BME280;75115;42.984;23.244;2024-02-26T01:54:42;94818.59;;;5.00;76.75
84859;BME280;75115;42.984;23.244;2024-02-26T01:57:10;94821.16;;;5.00;75.91
84859;BME280;75115;42.984;23.244;2024-02-26T01:59:36;94830.13;;;4.96;76.33
84859;BME280;75115;42.984;23.244;2024-02-26T02:02:03;94823.53;;;4.93;77.11
84859;BME280;75115;42.984;23.244;2024-02-26T02:04:31;94826.09;;;4.93;77.38
84859;BME280;75115;42.984;23.244;2024-02-26T02:06:58;94833.28;;;4.90;77.48
84859;BME280;75115;42.984;23.244;2024-02-26T02:09:25;94827.03;;;4.92;76.69
84859;BME280;75115;42.984;23.244;2024-02-26T02:11:51;94822.00;;;4.65;77.47
84859;BME280;75115;42.984;23.244;2024-02-26T02:14:17;94830.44;;;4.30;80.70
84859;BME280;75115;42.984;23.244;2024-02-26T02:16:42;94837.88;;;4.50;78.66
84859;BME280;75115;42.984;23.244;2024-02-26T02:19:07;94828.44;;;4.69;79.34
84859;BME280;75115;42.984;23.244;2024-02-26T02:21:33;94836.00;;;4.53;80.34
84859;BME280;75115;42.984;23.244;2024-02-26T02:23:58;94824.41;;;4.48;80.61
84859;BME280;75115;42.984;23.244;2024-02-26T02:26:23;94828.72;;;4.66;80.39
84859;BME280;75115;42.984;23.244;2024-02-26T02:28:49;94821.53;;;4.69;79.23
84859;BME280;75115;42.984;23.244;2024-02-26T02:31:15;94822.59;;;4.77;78.76
84859;BME280;75115;42.984;23.244;2024-02-26T02:33:41;94819.69;;;4.80;78.45
84859;BME280;75115;42.984;23.244;2024-02-26T02:36:06;94816.56;;;4.86;78.75
84859;BME280;75115;42.984;23.244;2024-02-26T02:38:36;94820.28;;;4.91;78.27
84859;BME280;75115;42.984;23.244;2024-02-26T02:41:01;94826.47;;;4.98;77.94
84859;BME280;75115;42.984;23.244;2024-02-26T02:43:26;94816.69;;;4.84;79.11
84859;BME280;75115;42.984;23.244;2024-02-26T02:45:52;94820.00;;;4.77;79.31
84859;BME280;75115;42.984;23.244;2024-02-26T02:48:17;94821.03;;;4.66;79.96
84859;BME280;75115;42.984;23.244;2024-02-26T02:50:43;94828.22;;;4.80;79.61
84859;BME280;75115;42.984;23.244;2024-02-26T02:53:08;94828.97;;;4.90;77.73
84859;BME280;75115;42.984;23.244;2024-02-26T02:55:33;94829.31;;;4.95;77.71
84859;BME280;75115;42.984;23.244;2024-02-26T02:57:59;94833.50;;;4.96;77.35
84859;BME280;75115;42.984;23.244;2024-02-26T03:00:24;94828.22;;;4.98;78.39
84859;BME280;75115;42.984;23.244;2024-02-26T03:02:49;94835.69;;;4.91;78.62
84859;BME280;75115;42.984;23.244;2024-02-26T03:05:15;94836.50;;;4.92;78.07
84859;BME280;75115;42.984;23.244;2024-02-26T03:07:40;94829.84;;;4.99;77.73
84859;BME280;75115;42.984;23.244;2024-02-26T03:10:06;94825.16;;;4.77;78.27
84859;BME280;75115;42.984;23.244;2024-02-26T03:12:33;94821.53;;;4.69;79.67
84859;BME280;75115;42.984;23.244;2024-02-26T03:14:59;94830.13;;;4.78;78.86
84859;BME280;75115;42.984;23.244;2024-02-26T03:17:27;94823.81;;;4.90;78.20
84859;BME280;75115;42.984;23.244;2024-02-26T03:19:53;94824.69;;;4.99;77.71
84859;BME280;75115;42.984;23.244;2024-02-26T03:22:19;94829.53;;;4.84;79.28
84859;BME280;75115;42.984;23.244;2024-02-26T03:24:45;94830.72;;;4.72;79.25
84859;BME280;75115;42.984;23.244;2024-02-26T03:27:10;94822.34;;;4.88;79.08
84859;BME280;75115;42.984;23.244;2024-02-26T03:29:37;94818.47;;;4.66;79.09
84859;BME280;75115;42.984;23.244;2024-02-26T03:32:03;94818.97;;;4.69;80.35
84859;BME280;75115;42.984;23.244;2024-02-26T03:34:29;94812.88;;;4.88;78.98
84859;BME280;75115;42.984;23.244;2024-02-26T03:36:56;94805.09;;;4.62;80.04
84859;BME280;75115;42.984;23.244;2024-02-26T03:39:21;94809.75;;;4.77;80.37
84859;BME280;75115;42.984;23.244;2024-02-26T03:41:47;94816.28;;;4.89;79.39
84859;BME280;75115;42.984;23.244;2024-02-26T03:44:13;94828.59;;;5.03;77.99
84859;BME280;75115;42.984;23.244;2024-02-26T03:46:38;94821.22;;;5.08;79.15
84859;BME280;75115;42.984;23.244;2024-02-26T03:49:04;94814.94;;;5.03;79.15
84859;BME280;75115;42.984;23.244;2024-02-26T03:51:29;94819.09;;;5.04;78.42
84859;BME280;75115;42.984;23.244;2024-02-26T03:53:57;94812.06;;;5.06;77.13
84859;BME280;75115;42.984;23.244;2024-02-26T03:56:23;94802.38;;;4.82;78.76
84859;BME280;75115;42.984;23.244;2024-02-26T03:58:49;94808.53;;;4.71;79.87
84859;BME280;75115;42.984;23.244;2024-02-26T04:01:14;94811.47;;;4.94;78.95
84859;BME280;75115;42.984;23.244;2024-02-26T04:03:40;94810.06;;;4.99;77.69
84859;BME280;75115;42.984;23.244;2024-02-26T04:06:08;94821.44;;;4.97;77.67
84859;BME280;75115;42.984;23.244;2024-02-26T04:08:35;94826.38;;;4.55;80.27
84859;BME280;75115;42.984;23.244;2024-02-26T04:11:01;94825.06;;;4.68;80.24
84859;BME280;75115;42.984;23.244;2024-02-26T04:13:26;94824.84;;;4.80;79.57
84859;BME280;75115;42.984;23.244;2024-02-26T04:15:51;94815.88;;;4.84;79.13
84859;BME280;75115;42.984;23.244;2024-02-26T04:18:17;94816.09;;;4.90;78.46
84859;BME280;75115;42.984;23.244;2024-02-26T04:20:42;94816.75;;;4.92;77.75
84859;BME280;75115;42.984;23.244;2024-02-26T04:23:08;94808.13;;;4.93;77.41
84859;BME280;75115;42.984;23.244;2024-02-26T04:25:33;94814.25;;;5.00;78.06
84859;BME280;75115;42.984;23.244;2024-02-26T04:27:59;94818.81;;;5.07;77.44
84859;BME280;75115;42.984;23.244;2024-02-26T04:30:24;94817.63;;;5.01;77.35
84859;BME280;75115;42.984;23.244;2024-02-26T04:32:49;94815.88;;;5.02;77.76
84859;BME280;75115;42.984;23.244;2024-02-26T04:35:15;94810.22;;;4.98;77.96
84859;BME280;75115;42.984;23.244;2024-02-26T04:37:40;94810.63;;;4.85;78.49
84859;BME280;75115;42.984;23.244;2024-02-26T04:40:06;94803.09;;;4.92;77.18
84859;BME280;75115;42.984;23.244;2024-02-26T04:42:33;94806.88;;;4.97;77.59
84859;BME280;75115;42.984;23.244;2024-02-26T04:44:58;94816.91;;;4.91;77.37
84859;BME280;75115;42.984;23.244;2024-02-26T04:47:23;94821.31;;;4.98;78.29
84859;BME280;75115;42.984;23.244;2024-02-26T04:49:49;94804.28;;;4.97;77.43
84859;BME280;75115;42.984;23.244;2024-02-26T04:52:15;94806.63;;;4.91;76.64
84859;BME280;75115;42.984;23.244;2024-02-26T04:54:41;94808.19;;;4.66;78.32
84859;BME280;75115;42.984;23.244;2024-02-26T04:57:06;94818.53;;;4.56;79.38
84859;BME280;75115;42.984;23.244;2024-02-26T04:59:31;94819.25;;;4.66;78.84
84859;BME280;75115;42.984;23.244;2024-02-26T05:01:57;94821.19;;;4.64;78.95
84859;BME280;75115;42.984;23.244;2024-02-26T05:04:22;94816.97;;;4.63;79.29
84859;BME280;75115;42.984;23.244;2024-02-26T05:06:48;94825.84;;;4.33;80.71
84859;BME280;75115;42.984;23.244;2024-02-26T05:09:13;94817.84;;;4.09;81.31
84859;BME280;75115;42.984;23.244;2024-02-26T05:11:38;94813.66;;;4.17;82.64
84859;BME280;75115;42.984;23.244;2024-02-26T05:14:04;94819.38;;;4.29;81.43
84859;BME280;75115;42.984;23.244;2024-02-26T05:16:29;94835.91;;;4.44;80.35
84859;BME280;75115;42.984;23.244;2024-02-26T05:18:56;94834.91;;;4.55;79.31
84859;BME280;75115;42.984;23.244;2024-02-26T05:21:21;94834.00;;;4.46;80.19
84859;BME280;75115;42.984;23.244;2024-02-26T05:23:47;94839.91;;;4.29;80.74
84859;BME280;75115;42.984;23.244;2024-02-26T05:26:19;94833.97;;;4.29;80.52
84859;BME280;75115;42.984;23.244;2024-02-26T05:28:45;94836.22;;;4.14;81.41
84859;BME280;75115;42.984;23.244;2024-02-26T05:31:12;94842.97;;;4.15;81.83
84859;BME280;75115;42.984;23.244;2024-02-26T05:33:40;94841.94;;;4.25;81.44
84859;BME280;75115;42.984;23.244;2024-02-26T05:36:06;94841.09;;;4.35;79.42
84859;BME280;75115;42.984;23.244;2024-02-26T05:38:31;94842.47;;;4.29;79.69
84859;BME280;75115;42.984;23.244;2024-02-26T05:40:58;94843.44;;;4.28;80.70
84859;BME280;75115;42.984;23.244;2024-02-26T05:43:27;94842.63;;;4.28;81.15
84859;BME280;75115;42.984;23.244;2024-02-26T05:45:53;94841.84;;;4.45;80.62
84859;BME280;75115;42.984;23.244;2024-02-26T05:48:19;94845.97;;;4.56;79.75
84859;BME280;75115;42.984;23.244;2024-02-26T05:50:47;94855.66;;;4.62;79.15
84859;BME280;75115;42.984;23.244;2024-02-26T05:53:12;94857.03;;;4.38;79.86
84859;BME280;75115;42.984;23.244;2024-02-26T05:55:38;94864.66;;;4.30;80.74
84859;BME280;75115;42.984;23.244;2024-02-26T05:58:04;94858.75;;;4.47;80.17
84859;BME280;75115;42.984;23.244;2024-02-26T06:00:29;94862.03;;;4.58;79.50
84859;BME280;75115;42.984;23.244;2024-02-26T06:02:54;94873.88;;;4.68;79.28
84859;BME280;75115;42.984;23.244;2024-02-26T06:05:20;94870.72;;;4.74;79.57
84859;BME280;75115;42.984;23.244;2024-02-26T06:07:45;94876.09;;;4.81;79.56
84859;BME280;75115;42.984;23.244;2024-02-26T06:10:11;94867.94;;;4.86;79.06
84859;BME280;75115;42.984;23.244;2024-02-26T06:12:38;94871.25;;;4.96;79.04
84859;BME280;75115;42.984;23.244;2024-02-26T06:15:04;94868.91;;;5.03;79.56
84859;BME280;75115;42.984;23.244;2024-02-26T06:17:29;94880.19;;;5.10;77.88
84859;BME280;75115;42.984;23.244;2024-02-26T06:19:55;94882.47;;;5.13;78.18
84859;BME280;75115;42.984;23.244;2024-02-26T06:22:20;94883.50;;;5.20;77.95
84859;BME280;75115;42.984;23.244;2024-02-26T06:24:46;94877.09;;;5.24;78.37
84859;BME280;75115;42.984;23.244;2024-02-26T06:27:11;94870.81;;;5.18;78.93
84859;BME280;75115;42.984;23.244;2024-02-26T06:29:37;94875.63;;;5.21;77.82
84859;BME280;75115;42.984;23.244;2024-02-26T06:32:05;94877.69;;;5.36;78.24
84859;BME280;75115;42.984;23.244;2024-02-26T06:34:30;94886.09;;;5.46;77.93
84859;BME280;75115;42.984;23.244;2024-02-26T06:36:56;94882.78;;;5.54;77.72
84859;BME280;75115;42.984;23.244;2024-02-26T06:39:21;94888.50;;;5.65;77.10
84859;BME280;75115;42.984;23.244;2024-02-26T06:41:46;94881.78;;;5.72;77.17
84859;BME280;75115;42.984;23.244;2024-02-26T06:44:13;94878.91;;;5.75;76.76
84859;BME280;75115;42.984;23.244;2024-02-26T06:46:38;94884.78;;;5.86;77.61
84859;BME280;75115;42.984;23.244;2024-02-26T06:49:05;94885.78;;;5.93;77.07
84859;BME280;75115;42.984;23.244;2024-02-26T06:51:30;94891.28;;;5.98;77.11
84859;BME280;75115;42.984;23.244;2024-02-26T06:53:55;94891.25;;;6.16;76.82
84859;BME280;75115;42.984;23.244;2024-02-26T06:56:21;94894.50;;;6.26;76.92
84859;BME280;75115;42.984;23.244;2024-02-26T06:58:46;94891.31;;;6.32;75.89
84859;BME280;75115;42.984;23.244;2024-02-26T07:01:12;94898.72;;;6.35;75.21
84859;BME280;75115;42.984;23.244;2024-02-26T07:03:40;94880.84;;;6.34;75.74
84859;BME280;75115;42.984;23.244;2024-02-26T07:06:05;94897.63;;;6.46;75.60
84859;BME280;75115;42.984;23.244;2024-02-26T07:08:32;94897.47;;;6.47;75.87
84859;BME280;75115;42.984;23.244;2024-02-26T07:10:57;94893.50;;;6.53;75.56
84859;BME280;75115;42.984;23.244;2024-02-26T07:13:22;94902.84;;;6.62;75.29
84859;BME280;75115;42.984;23.244;2024-02-26T07:15:48;94906.09;;;6.72;75.30
84859;BME280;75115;42.984;23.244;2024-02-26T07:18:14;94900.16;;;6.80;75.62
84859;BME280;75115;42.984;23.244;2024-02-26T07:20:39;94899.69;;;6.93;75.76
84859;BME280;75115;42.984;23.244;2024-02-26T07:23:04;94895.84;;;7.05;75.36
84859;BME280;75115;42.984;23.244;2024-02-26T07:25:30;94894.59;;;7.17;75.12
84859;BME280;75115;42.984;23.244;2024-02-26T07:27:55;94894.72;;;7.24;74.40
84859;BME280;75115;42.984;23.244;2024-02-26T07:30:21;94886.84;;;7.34;74.91
84859;BME280;75115;42.984;23.244;2024-02-26T07:32:46;94896.34;;;7.41;74.18
84859;BME280;75115;42.984;23.244;2024-02-26T07:35:11;94890.25;;;7.34;74.62
84859;BME280;75115;42.984;23.244;2024-02-26T07:37:37;94887.66;;;7.42;73.93
84859;BME280;75115;42.984;23.244;2024-02-26T07:40:03;94897.97;;;7.59;73.80
84859;BME280;75115;42.984;23.244;2024-02-26T07:42:28;94892.97;;;7.65;74.14
84859;BME280;75115;42.984;23.244;2024-02-26T07:44:54;94884.91;;;7.68;74.15
84859;BME280;75115;42.984;23.244;2024-02-26T07:47:19;94893.13;;;7.56;74.71
84859;BME280;75115;42.984;23.244;2024-02-26T07:49:45;94883.13;;;7.77;74.38
84859;BME280;75115;42.984;23.244;2024-02-26T07:52:10;94888.41;;;7.92;73.89
84859;BME280;75115;42.984;23.244;2024-02-26T07:54:36;94882.41;;;7.99;73.45
84859;BME280;75115;42.984;23.244;2024-02-26T07:57:01;94895.28;;;8.16;73.66
84859;BME280;75115;42.984;23.244;2024-02-26T07:59:30;94890.91;;;8.24;73.89
84859;BME280;75115;42.984;23.244;2024-02-26T08:01:56;94885.38;;;8.36;73.73
84859;BME280;75115;42.984;23.244;2024-02-26T08:04:21;94882.13;;;8.50;72.99
84859;BME280;75115;42.984;23.244;2024-02-26T08:06:46;94878.03;;;8.64;72.47
84859;BME280;75115;42.984;23.244;2024-02-26T08:09:12;94876.34;;;8.71;72.03
84859;BME280;75115;42.984;23.244;2024-02-26T08:11:38;94869.66;;;8.85;72.19
84859;BME280;75115;42.984;23.244;2024-02-26T08:14:04;94879.94;;;8.93;72.05
84859;BME280;75115;42.984;23.244;2024-02-26T08:16:30;94859.09;;;8.94;71.90
84859;BME280;75115;42.984;23.244;2024-02-26T08:18:55;94868.06;;;9.07;72.70
84859;BME280;75115;42.984;23.244;2024-02-26T08:21:21;94859.63;;;9.13;71.09
84859;BME280;75115;42.984;23.244;2024-02-26T08:23:46;94865.88;;;9.18;72.08
84859;BME280;75115;42.984;23.244;2024-02-26T08:26:11;94870.84;;;9.28;71.33
84859;BME280;75115;42.984;23.244;2024-02-26T08:28:37;94865.22;;;9.39;70.73
84859;BME280;75115;42.984;23.244;2024-02-26T08:31:03;94868.84;;;9.53;70.03
84859;BME280;75115;42.984;23.244;2024-02-26T08:33:28;94867.31;;;9.44;70.43
84859;BME280;75115;42.984;23.244;2024-02-26T08:35:54;94864.03;;;9.50;71.32
84859;BME280;75115;42.984;23.244;2024-02-26T08:38:19;94864.22;;;9.63;69.98
84859;BME280;75115;42.984;23.244;2024-02-26T08:40:45;94862.63;;;9.77;71.22
84859;BME280;75115;42.984;23.244;2024-02-26T08:43:10;94864.72;;;9.96;69.57
84859;BME280;75115;42.984;23.244;2024-02-26T08:45:35;94867.34;;;10.11;70.64
84859;BME280;75115;42.984;23.244;2024-02-26T08:48:01;94868.22;;;10.18;69.56
84859;BME280;75115;42.984;23.244;2024-02-26T08:50:26;94858.03;;;10.17;69.64
84859;BME280;75115;42.984;23.244;2024-02-26T08:52:52;94863.75;;;10.27;68.29
84859;BME280;75115;42.984;23.244;2024-02-26T08:55:18;94866.47;;;10.34;68.46
84859;BME280;75115;42.984;23.244;2024-02-26T08:57:44;94861.09;;;10.35;68.96
84859;BME280;75115;42.984;23.244;2024-02-26T09:00:10;94859.03;;;10.45;67.85
84859;BME280;75115;42.984;23.244;2024-02-26T09:02:36;94857.94;;;10.55;67.26
84859;BME280;75115;42.984;23.244;2024-02-26T09:05:04;94864.13;;;10.54;67.24
84859;BME280;75115;42.984;23.244;2024-02-26T09:07:31;94857.59;;;10.58;68.26
84859;BME280;75115;42.984;23.244;2024-02-26T09:09:56;94858.34;;;10.73;67.88
84859;BME280;75115;42.984;23.244;2024-02-26T09:12:22;94853.41;;;10.78;67.28
84859;BME280;75115;42.984;23.244;2024-02-26T09:14:47;94853.69;;;10.83;66.26
84859;BME280;75115;42.984;23.244;2024-02-26T09:17:12;94849.34;;;10.90;66.06
84859;BME280;75115;42.984;23.244;2024-02-26T09:19:38;94843.69;;;11.02;65.53
84859;BME280;75115;42.984;23.244;2024-02-26T09:22:04;94843.69;;;11.02;66.07
84859;BME280;75115;42.984;23.244;2024-02-26T09:24:30;94834.78;;;11.11;66.15
84859;BME280;75115;42.984;23.244;2024-02-26T09:26:56;94840.06;;;11.17;65.96
84859;BME280;75115;42.984;23.244;2024-02-26T09:29:21;94840.16;;;11.31;65.62
84859;BME280;75115;42.984;23.244;2024-02-26T09:31:47;94841.19;;;11.36;64.58
84859;BME280;75115;42.984;23.244;2024-02-26T09:34:13;94837.09;;;11.48;64.22
84859;BME280;75115;42.984;23.244;2024-02-26T09:36:38;94828.00;;;11.59;64.78
84859;BME280;75115;42.984;23.244;2024-02-26T09:39:04;94829.91;;;11.72;64.28
84859;BME280;75115;42.984;23.244;2024-02-26T09:41:30;94827.16;;;11.80;62.55
84859;BME280;75115;42.984;23.244;2024-02-26T09:43:57;94826.41;;;11.86;63.09
84859;BME280;75115;42.984;23.244;2024-02-26T09:46:23;94828.09;;;12.01;62.30
84859;BME280;75115;42.984;23.244;2024-02-26T09:48:49;94823.78;;;12.14;62.08
84859;BME280;75115;42.984;23.244;2024-02-26T09:51:16;94820.47;;;12.27;61.51
84859;BME280;75115;42.984;23.244;2024-02-26T09:53:43;94815.31;;;12.47;61.77
84859;BME280;75115;42.984;23.244;2024-02-26T09:56:11;94813.81;;;12.66;61.79
84859;BME280;75115;42.984;23.244;2024-02-26T09:58:37;94810.25;;;12.87;58.89
84859;BME280;75115;42.984;23.244;2024-02-26T10:01:11;94811.47;;;12.97;59.12
84859;BME280;75115;42.984;23.244;2024-02-26T10:03:41;94814.09;;;13.04;58.55
84859;BME280;75115;42.984;23.244;2024-02-26T10:06:08;94807.91;;;13.12;59.00
84859;BME280;75115;42.984;23.244;2024-02-26T10:08:35;94808.50;;;13.20;58.41
84859;BME280;75115;42.984;23.244;2024-02-26T10:11:01;94806.31;;;13.31;59.06
84859;BME280;75115;42.984;23.244;2024-02-26T10:13:26;94804.34;;;13.46;58.06
84859;BME280;75115;42.984;23.244;2024-02-26T10:15:52;94795.09;;;13.63;53.93
84859;BME280;75115;42.984;23.244;2024-02-26T10:18:17;94791.72;;;13.69;54.22
84859;BME280;75115;42.984;23.244;2024-02-26T10:20:59;94797.09;;;13.81;54.74
84859;BME280;75115;42.984;23.244;2024-02-26T10:23:25;94796.28;;;13.81;54.53
84859;BME280;75115;42.984;23.244;2024-02-26T10:25:54;94786.03;;;13.99;53.27
84859;BME280;75115;42.984;23.244;2024-02-26T10:28:23;94790.25;;;13.93;51.85
84859;BME280;75115;42.984;23.244;2024-02-26T10:30:48;94785.81;;;14.01;51.71
84859;BME280;75115;42.984;23.244;2024-02-26T10:33:14;94783.59;;;14.11;50.53
84859;BME280;75115;42.984;23.244;2024-02-26T10:35:45;94782.34;;;14.27;49.42
84859;BME280;75115;42.984;23.244;2024-02-26T10:38:10;94779.38;;;14.16;50.64
84859;BME280;75115;42.984;23.244;2024-02-26T10:40:36;94771.50;;;14.23;48.62
84859;BME280;75115;42.984;23.244;2024-02-26T10:43:02;94769.69;;;14.23;48.52
84859;BME280;75115;42.984;23.244;2024-02-26T10:45:27;94773.53;;;14.21;49.44
84859;BME280;75115;42.984;23.244;2024-02-26T10:47:53;94762.47;;;14.26;50.28
84859;BME280;75115;42.984;23.244;2024-02-26T10:50:19;94757.06;;;14.27;48.69
84859;BME280;75115;42.984;23.244;2024-02-26T10:52:45;94760.44;;;14.28;48.31
84859;BME280;75115;42.984;23.244;2024-02-26T10:55:15;94759.44;;;14.35;47.16
84859;BME280;75115;42.984;23.244;2024-02-26T10:57:44;94764.13;;;14.13;47.03
84859;BME280;75115;42.984;23.244;2024-02-26T11:00:14;94757.44;;;14.37;48.71
84859;BME280;75115;42.984;23.244;2024-02-26T11:02:41;94746.94;;;14.51;48.25
84859;BME280;75115;42.984;23.244;2024-02-26T11:05:07;94757.09;;;14.65;45.88
84859;BME280;75115;42.984;23.244;2024-02-26T11:07:36;94755.84;;;14.75;45.20
84859;BME280;75115;42.984;23.244;2024-02-26T11:10:03;94744.78;;;14.79;44.97
84859;BME280;75115;42.984;23.244;2024-02-26T11:12:31;94755.03;;;14.74;44.03
84859;BME280;75115;42.984;23.244;2024-02-26T11:14:57;94750.00;;;14.79;45.53
84859;BME280;75115;42.984;23.244;2024-02-26T11:17:26;94744.94;;;14.84;45.61
84859;BME280;75115;42.984;23.244;2024-02-26T11:19:55;94739.22;;;15.01;43.71
84859;BME280;75115;42.984;23.244;2024-02-26T11:22:21;94739.63;;;14.97;44.56
84859;BME280;75115;42.984;23.244;2024-02-26T11:24:52;94748.66;;;15.02;44.24
84859;BME280;75115;42.984;23.244;2024-02-26T11:27:19;94746.34;;;15.12;44.70
84859;BME280;75115;42.984;23.244;2024-02-26T11:29:48;94739.28;;;15.19;42.98
84859;BME280;75115;42.984;23.244;2024-02-26T11:32:15;94738.53;;;15.12;43.21
84859;BME280;75115;42.984;23.244;2024-02-26T11:34:41;94732.88;;;15.15;43.20
84859;BME280;75115;42.984;23.244;2024-02-26T11:37:15;94730.38;;;15.27;41.84
84859;BME280;75115;42.984;23.244;2024-02-26T11:39:41;94732.91;;;15.33;42.05
84859;BME280;75115;42.984;23.244;2024-02-26T11:42:08;94732.75;;;15.28;41.70
84859;BME280;75115;42.984;23.244;2024-02-26T11:44:34;94736.25;;;15.22;41.29
84859;BME280;75115;42.984;23.244;2024-02-26T11:47:12;94719.97;;;15.20;41.52
84859;BME280;75115;42.984;23.244;2024-02-26T11:49:38;94723.75;;;15.24;42.39
84859;BME280;75115;42.984;23.244;2024-02-26T11:52:09;94718.34;;;15.26;42.22
84859;BME280;75115;42.984;23.244;2024-02-26T11:54:54;94717.47;;;15.32;41.95
84859;BME280;75115;42.984;23.244;2024-02-26T11:57:39;94719.44;;;15.36;39.96
84859;BME280;75115;42.984;23.244;2024-02-26T12:00:13;94709.47;;;15.27;40.18
84859;BME280;75115;42.984;23.244;2024-02-26T12:02:46;94705.63;;;15.29;40.26
84859;BME280;75115;42.984;23.244;2024-02-26T12:07:44;94705.16;;;15.39;39.79
84859;BME280;75115;42.984;23.244;2024-02-26T12:10:28;94715.59;;;15.39;40.13
84859;BME280;75115;42.984;23.244;2024-02-26T12:13:05;94714.72;;;15.27;40.09
84859;BME280;75115;42.984;23.244;2024-02-26T12:15:32;94718.94;;;15.21;39.25
84859;BME280;75115;42.984;23.244;2024-02-26T12:18:00;94716.41;;;15.14;40.54
84859;BME280;75115;42.984;23.244;2024-02-26T12:20:26;94721.63;;;15.14;40.61
84859;BME280;75115;42.984;23.244;2024-02-26T12:22:52;94708.56;;;15.14;40.09
84859;BME280;75115;42.984;23.244;2024-02-26T12:25:27;94713.16;;;15.19;39.82
84859;BME280;75115;42.984;23.244;2024-02-26T12:27:53;94717.84;;;15.10;40.99
84859;BME280;75115;42.984;23.244;2024-02-26T12:30:19;94713.41;;;15.11;41.26
84859;BME280;75115;42.984;23.244;2024-02-26T12:32:46;94708.34;;;15.16;40.39
84859;BME280;75115;42.984;23.244;2024-02-26T12:35:12;94710.00;;;15.10;41.69
84859;BME280;75115;42.984;23.244;2024-02-26T12:37:38;94724.22;;;14.89;41.42
84859;BME280;75115;42.984;23.244;2024-02-26T12:40:08;94709.63;;;15.07;41.25
84859;BME280;75115;42.984;23.244;2024-02-26T12:42:34;94717.63;;;15.12;41.16
84859;BME280;75115;42.984;23.244;2024-02-26T12:45:08;94711.94;;;15.21;40.83
84859;BME280;75115;42.984;23.244;2024-02-26T12:47:41;94707.38;;;15.17;41.10
84859;BME280;75115;42.984;23.244;2024-02-26T12:50:08;94709.16;;;15.16;41.11
84859;BME280;75115;42.984;23.244;2024-02-26T12:52:43;94715.72;;;15.26;41.18
84859;BME280;75115;42.984;23.244;2024-02-26T12:55:12;94713.84;;;15.08;40.62